Time;durP1;ratioP1;P1;durP2;ratioP2;P2;SDS_P1;SDS_P2;PMS_P1;PMS_P2;Temp;Humidity;BMP_temperature;BMP_pressure;BME280_temperature;BME280_humidity;BME280_pressure;Samples;Min_cycle;Max_cycle;Signal;HPM_P1;HPM_P2
2022/09/17 00:01:36;;;;;;;2.60;0.73;;;;;;;15.22;73.99;92676.78;5063870;28;20032;-35
2022/09/17 00:04:03;;;;;;;0.10;0.10;;;;;;;15.12;74.73;92672.00;5088810;28;20046;-36
2022/09/17 00:06:33;;;;;;;0.30;0.30;;;;;;;15.15;75.00;92675.66;5082410;28;20052;-35
2022/09/17 00:08:58;;;;;;;0.20;0.20;;;;;;;15.13;74.84;92681.09;5079406;28;20024;-36
2022/09/17 00:11:27;;;;;;;0.98;0.80;;;;;;;15.15;75.04;92679.16;5085537;28;20540;-36
2022/09/17 00:13:53;;;;;;;;;;;;;;;14.97;75.68;92677.97;5084345;28;20028;-36
2022/09/17 00:16:25;;;;;;;7.55;1.23;;;;;;;14.88;75.78;92678.78;5086454;28;19916;-36
2022/09/17 00:18:51;;;;;;;0.20;0.20;;;;;;;14.78;76.02;92675.34;5065111;28;20016;-36
2022/09/17 00:21:17;;;;;;;0.20;0.20;;;;;;;14.81;75.75;92682.47;5085489;28;20046;-36
2022/09/17 00:23:43;;;;;;;5.60;3.13;;;;;;;14.76;75.87;92672.44;5077387;28;20095;-36
2022/09/17 00:26:08;;;;;;;0.32;0.32;;;;;;;14.79;75.63;92674.00;5089148;28;20434;-36
2022/09/17 00:28:34;;;;;;;0.30;0.30;;;;;;;14.87;75.51;92673.81;5086503;28;20035;-36
2022/09/17 00:30:59;;;;;;;0.73;0.73;;;;;;;14.83;76.00;92671.50;5073341;28;20470;-35
2022/09/17 00:33:25;;;;;;;2.60;1.90;;;;;;;14.85;76.08;92677.19;5077940;28;20020;-35
2022/09/17 00:36:01;;;;;;;0.32;0.32;;;;;;;14.84;76.01;92675.72;5082097;28;20066;-36
2022/09/17 00:38:27;;;;;;;0.20;0.20;;;;;;;14.88;75.43;92673.22;5080533;28;20048;-37
2022/09/17 00:40:52;;;;;;;0.85;0.85;;;;;;;14.93;75.26;92677.72;5082878;28;20028;-36
2022/09/17 00:43:35;;;;;;;0.80;0.80;;;;;;;14.85;75.46;92671.63;5082221;28;20042;-36
2022/09/17 00:46:01;;;;;;;0.93;0.45;;;;;;;14.75;76.13;92667.47;5074879;28;20099;-35
2022/09/17 00:48:27;;;;;;;0.82;0.82;;;;;;;14.90;75.80;92667.78;5065886;28;20567;-36
2022/09/17 00:50:54;;;;;;;1.80;1.65;;;;;;;14.93;74.95;92668.66;5083546;28;20031;-36
2022/09/17 00:53:20;;;;;;;4.07;3.40;;;;;;;14.92;74.67;92665.13;5065588;28;20031;-36
2022/09/17 00:55:55;;;;;;;3.03;2.47;;;;;;;15.00;74.56;92668.47;5092040;28;20023;-36
2022/09/17 00:58:21;;;;;;;1.52;1.42;;;;;;;14.97;74.58;92672.41;5078435;28;20024;-35
2022/09/17 01:00:47;;;;;;;1.52;1.50;;;;;;;14.97;74.78;92671.69;5059653;28;20035;-35
2022/09/17 01:03:13;;;;;;;1.48;1.38;;;;;;;15.05;74.87;92675.72;5075678;28;20085;-35
2022/09/17 01:05:58;;;;;;;1.02;1.02;;;;;;;14.92;75.69;92672.75;5056659;28;20439;-35
2022/09/17 01:08:37;;;;;;;1.65;1.27;;;;;;;14.78;76.86;92672.56;5051700;28;20451;-36
2022/09/17 01:11:37;;;;;;;1.38;1.27;;;;;;;14.57;77.16;92653.09;5065842;28;20028;-35
2022/09/17 01:14:21;;;;;;;0.82;0.70;;;;;;;14.64;78.32;92679.94;5077237;28;20111;-35
2022/09/17 01:17:11;;;;;;;2.97;1.20;;;;;;;14.60;77.67;92665.06;5082534;28;20046;-36
2022/09/17 01:20:08;;;;;;;1.73;1.63;;;;;;;14.81;75.96;92674.13;5084573;28;20036;-35
2022/09/17 01:23:10;;;;;;;1.50;1.42;;;;;;;14.89;75.57;92671.91;5082927;28;20036;-35
2022/09/17 01:26:03;;;;;;;1.48;1.33;;;;;;;14.77;75.96;92676.66;5082600;28;20035;-36
2022/09/17 01:28:43;;;;;;;1.45;1.38;;;;;;;14.78;75.75;92660.72;5084607;28;20503;-35
2022/09/17 01:31:21;;;;;;;0.60;0.60;;;;;;;14.57;76.47;92664.22;5061903;28;20028;-36
2022/09/17 01:34:19;;;;;;;1.42;0.88;;;;;;;14.70;75.64;92662.97;5085231;28;20036;-35
2022/09/17 01:36:50;;;;;;;0.10;0.10;;;;;;;14.74;75.02;92661.19;5064175;28;20057;-36
2022/09/17 01:39:24;;;;;;;0.22;0.22;;;;;;;14.60;75.94;92651.91;5088647;28;20547;-35
2022/09/17 01:42:10;;;;;;;0.38;0.38;;;;;;;14.55;76.35;92652.97;5081917;28;20032;-35
2022/09/17 01:45:00;;;;;;;0.88;0.88;;;;;;;14.61;75.87;92652.63;5041725;28;20040;-35
2022/09/17 01:47:29;;;;;;;3.55;1.10;;;;;;;14.61;75.97;92658.19;5082827;28;20028;-36
2022/09/17 01:50:00;;;;;;;1.73;1.60;;;;;;;14.45;76.85;92663.38;5068573;28;20056;-35
2022/09/17 01:52:27;;;;;;;1.42;1.17;;;;;;;14.36;77.29;92656.56;5067146;28;20085;-35
2022/09/17 01:54:55;;;;;;;1.30;1.30;;;;;;;14.24;77.57;92630.00;5070029;28;20492;-36
2022/09/17 01:57:33;;;;;;;0.73;0.50;;;;;;;14.47;77.00;92646.84;5066107;28;20045;-35
2022/09/17 02:00:04;;;;;;;1.45;0.95;;;;;;;14.35;77.33;92657.91;5068692;28;20465;-35
2022/09/17 02:02:53;;;;;;;1.75;0.73;;;;;;;14.45;76.71;92657.84;5062804;28;20032;-36
2022/09/17 02:05:33;;;;;;;1.40;1.40;;;;;;;14.48;76.54;92648.31;5065138;28;20085;-36
2022/09/17 02:08:05;;;;;;;0.70;0.70;;;;;;;14.36;76.89;92634.34;5083716;28;20027;-36
2022/09/17 02:10:34;;;;;;;0.68;0.68;;;;;;;14.45;77.05;92635.63;5077867;28;20684;-35
2022/09/17 02:13:02;;;;;;;1.58;0.93;;;;;;;14.51;76.70;92626.97;5063271;28;20558;-36
2022/09/17 02:15:44;;;;;;;3.40;1.80;;;;;;;14.48;77.85;92622.59;5081747;28;20032;-35
2022/09/17 02:19:00;;;;;;;0.85;0.85;;;;;;;14.48;77.42;92601.09;5065547;28;20453;-35
2022/09/17 02:21:32;;;;;;;6.22;3.20;;;;;;;14.44;77.60;92603.63;5037431;28;20028;-35
2022/09/17 02:24:05;;;;;;;0.93;0.85;;;;;;;14.30;77.56;92567.31;5081780;28;20588;-35
2022/09/17 02:26:31;;;;;;;0.98;0.77;;;;;;;14.50;76.79;92559.56;5072696;28;20107;-35
2022/09/17 02:29:01;;;;;;;1.25;1.25;;;;;;;14.43;77.35;92566.78;5081510;28;20073;-35
2022/09/17 02:31:27;;;;;;;3.60;2.15;;;;;;;14.40;77.74;92578.38;5062425;28;20118;-35
2022/09/17 02:33:56;;;;;;;1.05;1.05;;;;;;;14.35;77.70;92569.03;5076369;28;20587;-35
2022/09/17 02:36:22;;;;;;;;;;;;;;;14.33;77.76;92584.84;5068488;28;20020;-35
2022/09/17 02:38:57;;;;;;;3.20;2.45;;;;;;;14.27;78.07;92567.75;5083957;28;19916;-35
2022/09/17 02:41:25;;;;;;;7.00;1.25;;;;;;;14.37;77.65;92568.44;5081068;28;20052;-35
2022/09/17 02:43:55;;;;;;;1.17;1.17;;;;;;;14.33;77.54;92570.94;5060666;28;20030;-35
2022/09/17 02:46:29;;;;;;;0.13;0.13;;;;;;;14.33;77.38;92562.63;5086125;28;20020;-35
2022/09/17 02:49:08;;;;;;;4.25;2.35;;;;;;;14.37;77.27;92560.84;5085865;28;20496;-34
2022/09/17 02:51:55;;;;;;;2.35;2.15;;;;;;;14.32;77.86;92548.00;5086697;28;20030;-35
2022/09/17 02:54:29;;;;;;;1.60;1.50;;;;;;;14.31;78.53;92548.59;5084037;28;20056;-35
2022/09/17 02:57:13;;;;;;;2.03;1.92;;;;;;;14.33;78.92;92554.28;5087616;28;20092;-35
2022/09/17 02:59:41;;;;;;;1.58;0.57;;;;;;;14.38;78.61;92553.94;5086339;28;20063;-35
2022/09/17 03:02:17;;;;;;;0.73;0.73;;;;;;;14.32;79.27;92536.16;5084707;28;20038;-35
2022/09/17 03:04:45;;;;;;;0.30;0.30;;;;;;;14.32;79.97;92531.34;5065721;28;20543;-35
2022/09/17 03:07:12;;;;;;;1.40;1.40;;;;;;;14.35;80.06;92535.72;5081483;28;20036;-35
2022/09/17 03:09:37;;;;;;;1.80;1.55;;;;;;;14.37;80.40;92526.78;5079071;28;20079;-35
2022/09/17 03:12:03;;;;;;;0.73;0.68;;;;;;;14.37;80.46;92518.44;5085953;28;20488;-36
2022/09/17 03:14:29;;;;;;;0.93;0.93;;;;;;;14.55;79.49;92516.84;5082655;28;20466;-36
2022/09/17 03:16:54;;;;;;;0.38;0.38;;;;;;;14.52;79.60;92501.38;5066844;28;20024;-36
2022/09/17 03:19:20;;;;;;;1.42;1.33;;;;;;;14.59;79.43;92522.66;5085108;28;20101;-36
2022/09/17 03:21:45;;;;;;;0.55;0.55;;;;;;;14.55;79.29;92500.19;5088617;28;20484;-36
2022/09/17 03:24:11;;;;;;;0.20;0.20;;;;;;;14.42;79.19;92497.97;5085915;28;20412;-36
2022/09/17 03:26:37;;;;;;;0.73;0.73;;;;;;;14.47;79.76;92521.16;5079786;28;20056;-36
2022/09/17 03:29:03;;;;;;;2.60;1.85;;;;;;;14.42;80.35;92522.97;5085737;28;20066;-36
2022/09/17 03:31:29;;;;;;;0.40;0.40;;;;;;;14.47;80.14;92521.16;5083549;28;20052;-36
2022/09/17 03:33:54;;;;;;;0.98;0.93;;;;;;;14.52;79.73;92517.31;5075165;28;20024;-36
2022/09/17 03:36:19;;;;;;;0.98;0.98;;;;;;;14.49;79.71;92505.34;5089738;28;20472;-36
2022/09/17 03:38:45;;;;;;;0.85;0.75;;;;;;;14.42;80.16;92509.06;5082140;28;20067;-36
2022/09/17 03:41:10;;;;;;;1.33;1.27;;;;;;;14.46;79.97;92508.59;5087408;28;20476;-36
2022/09/17 03:43:36;;;;;;;2.10;1.65;;;;;;;14.36;80.52;92514.94;5077461;28;20480;-36
2022/09/17 03:46:01;;;;;;;0.75;0.75;;;;;;;14.42;80.31;92523.66;5082772;28;20027;-36
2022/09/17 03:48:28;;;;;;;0.65;0.65;;;;;;;14.52;79.84;92531.94;5081198;28;20021;-36
2022/09/17 03:50:54;;;;;;;0.30;0.30;;;;;;;14.53;79.61;92522.25;5079710;28;20522;-35
2022/09/17 03:53:19;;;;;;;0.30;0.30;;;;;;;14.44;80.28;92528.63;5085162;28;20020;-35
2022/09/17 03:55:44;;;;;;;1.40;1.02;;;;;;;14.41;80.74;92519.44;5078209;28;20027;-36
2022/09/17 03:58:10;;;;;;;1.20;1.10;;;;;;;14.56;80.20;92525.91;5078045;28;20027;-35
2022/09/17 04:00:36;;;;;;;1.45;0.95;;;;;;;14.48;80.69;92523.34;5076591;28;20028;-36
2022/09/17 04:03:03;;;;;;;1.88;1.75;;;;;;;14.43;81.14;92527.16;5092579;28;20059;-36
2022/09/17 04:05:28;;;;;;;0.90;0.73;;;;;;;14.50;80.70;92503.28;5087998;28;20035;-36
2022/09/17 04:07:54;;;;;;;0.20;0.20;;;;;;;14.46;80.22;92509.31;5069436;28;20027;-35
2022/09/17 04:10:19;;;;;;;0.20;0.20;;;;;;;14.40;80.63;92517.97;5059811;28;20101;-36
2022/09/17 04:12:45;;;;;;;0.28;0.28;;;;;;;14.49;80.15;92513.66;5074705;28;20461;-36
2022/09/17 04:15:10;;;;;;;0.25;0.25;;;;;;;14.43;78.89;92477.91;5077858;28;20025;-36
2022/09/17 04:17:35;;;;;;;1.55;1.45;;;;;;;14.42;78.25;92479.22;5082671;28;20028;-36
2022/09/17 04:20:02;;;;;;;2.13;1.15;;;;;;;14.26;79.62;92483.72;5082030;28;20028;-36
2022/09/17 04:22:27;;;;;;;0.40;0.40;;;;;;;14.38;80.21;92503.22;5082938;28;20023;-36
2022/09/17 04:24:53;;;;;;;0.52;0.35;;;;;;;14.55;79.47;92505.75;5077277;28;20028;-35
2022/09/17 04:27:18;;;;;;;0.43;0.43;;;;;;;14.53;79.78;92505.59;5083742;28;20057;-36
2022/09/17 04:29:44;;;;;;;0.40;0.40;;;;;;;14.60;80.23;92495.59;5079401;28;20024;-36
2022/09/17 04:32:09;;;;;;;0.30;0.30;;;;;;;14.68;79.62;92502.41;5086465;28;20020;-36
2022/09/17 04:34:35;;;;;;;1.30;1.23;;;;;;;14.73;79.85;92512.44;5079903;28;20031;-36
2022/09/17 04:37:01;;;;;;;0.85;0.85;;;;;;;14.72;79.75;92519.34;5075386;28;20063;-36
2022/09/17 04:39:26;;;;;;;1.88;0.93;;;;;;;14.79;79.63;92532.28;5082028;28;20012;-36
2022/09/17 04:41:51;;;;;;;0.95;0.95;;;;;;;14.87;79.38;92549.47;5070091;28;20024;-36
2022/09/17 04:44:17;;;;;;;1.40;1.30;;;;;;;14.94;79.21;92551.31;5082341;28;20047;-36
2022/09/17 04:46:43;;;;;;;1.50;0.98;;;;;;;14.95;78.68;92541.66;5078933;28;20423;-36
2022/09/17 04:49:08;;;;;;;1.25;1.15;;;;;;;14.97;79.13;92541.03;5080270;28;20024;-36
2022/09/17 04:51:34;;;;;;;1.55;1.40;;;;;;;14.90;79.85;92534.38;5086713;28;20093;-35
2022/09/17 04:53:59;;;;;;;0.68;0.50;;;;;;;14.78;79.79;92510.66;5082676;28;20458;-36
2022/09/17 04:56:25;;;;;;;0.20;0.20;;;;;;;15.01;79.26;92530.91;5065679;28;20024;-35
2022/09/17 04:58:50;;;;;;;0.93;0.93;;;;;;;15.14;79.46;92543.50;5081288;28;20070;-36
2022/09/17 05:01:17;;;;;;;1.13;1.05;;;;;;;15.15;80.04;92554.06;5085511;28;20512;-36
2022/09/17 05:03:43;;;;;;;0.38;0.38;;;;;;;15.05;79.84;92561.75;5076474;28;20499;-36
2022/09/17 05:06:09;;;;;;;1.58;1.48;;;;;;;15.26;79.65;92565.78;5081126;28;20454;-35
2022/09/17 05:08:34;;;;;;;0.47;0.47;;;;;;;15.39;78.63;92584.69;5080192;28;20028;-36
2022/09/17 05:11:00;;;;;;;1.55;1.48;;;;;;;15.50;78.55;92597.94;5084127;28;20126;-36
2022/09/17 05:13:26;;;;;;;2.75;0.98;;;;;;;15.56;77.98;92581.59;5084215;28;20032;-36
2022/09/17 05:15:55;;;;;;;1.60;1.50;;;;;;;15.64;77.82;92619.00;5087904;28;20028;-36
2022/09/17 05:18:20;;;;;;;;;;;;;;;15.55;78.24;92625.38;5087787;28;20084;-36
2022/09/17 05:20:46;;;;;;;3.33;2.70;;;;;;;15.44;78.41;92650.41;5082356;28;19912;-36
2022/09/17 05:23:11;;;;;;;0.57;0.57;;;;;;;15.46;79.05;92658.88;5089260;28;20571;-36
2022/09/17 05:25:37;;;;;;;0.95;0.95;;;;;;;15.39;78.90;92660.53;5089629;28;20028;-36
2022/09/17 05:28:02;;;;;;;1.42;1.05;;;;;;;15.54;79.08;92657.34;5087157;28;20055;-35
2022/09/17 05:30:29;;;;;;;2.00;1.85;;;;;;;15.59;79.39;92658.31;5096487;28;20667;-36
2022/09/17 05:33:02;;;;;;;1.92;1.73;;;;;;;15.76;80.31;92652.44;5081165;28;20103;-35
2022/09/17 05:35:28;;;;;;;0.10;0.10;;;;;;;15.81;80.35;92643.00;5087212;28;20120;-36
2022/09/17 05:38:01;;;;;;;0.45;0.45;;;;;;;15.83;81.26;92640.34;5084818;28;20118;-36
2022/09/17 05:40:27;;;;;;;1.30;1.00;;;;;;;15.87;82.68;92637.81;5087296;28;20028;-36
2022/09/17 05:43:00;;;;;;;3.25;1.35;;;;;;;16.05;83.45;92652.81;5083556;28;20499;-36
2022/09/17 05:45:26;;;;;;;0.98;0.45;;;;;;;16.23;84.68;92658.78;5084125;28;20054;-36
2022/09/17 05:47:59;;;;;;;0.40;0.40;;;;;;;16.44;84.35;92653.81;5088282;28;20055;-36
2022/09/17 05:50:25;;;;;;;0.38;0.38;;;;;;;16.52;84.87;92640.38;5077760;28;20384;-36
2022/09/17 05:52:51;;;;;;;3.50;1.58;;;;;;;16.64;85.29;92624.38;5083274;28;20468;-36
2022/09/17 05:55:18;;;;;;;5.15;2.92;;;;;;;16.73;85.54;92639.53;5091093;28;20020;-36
2022/09/17 05:57:43;;;;;;;14.38;7.95;;;;;;;16.34;85.98;92572.44;5088416;28;20100;-36
2022/09/17 06:00:10;;;;;;;4.57;4.18;;;;;;;16.94;85.48;92670.03;5082661;28;20468;-36
2022/09/17 06:02:36;;;;;;;0.95;0.90;;;;;;;16.99;86.62;92649.41;5084435;28;20036;-36
2022/09/17 06:05:03;;;;;;;1.27;0.70;;;;;;;17.25;87.15;92650.91;5085279;28;20082;-36
2022/09/17 06:07:28;;;;;;;0.35;0.35;;;;;;;17.42;86.79;92638.59;5088237;28;20032;-36
2022/09/17 06:09:54;;;;;;;0.22;0.22;;;;;;;17.53;86.47;92623.16;5079611;28;20028;-36
2022/09/17 06:12:19;;;;;;;1.30;1.20;;;;;;;17.68;86.78;92617.00;5087033;28;20131;-36
2022/09/17 06:14:45;;;;;;;1.75;0.98;;;;;;;17.92;86.70;92643.44;5064868;28;20031;-36
2022/09/17 06:17:10;;;;;;;0.88;0.88;;;;;;;18.13;84.48;92637.59;5085080;28;20024;-36
2022/09/17 06:19:36;;;;;;;0.90;0.90;;;;;;;18.21;84.19;92640.09;5084512;28;20019;-36
2022/09/17 06:22:02;;;;;;;0.30;0.30;;;;;;;18.26;84.86;92639.69;5089113;28;20048;-36
2022/09/17 06:24:27;;;;;;;0.17;0.17;;;;;;;18.19;83.89;92624.66;5069811;28;20043;-36
2022/09/17 06:26:53;;;;;;;0.20;0.20;;;;;;;18.29;83.97;92632.13;5085471;28;20016;-36
2022/09/17 06:29:19;;;;;;;0.40;0.40;;;;;;;18.12;84.37;92630.56;5085239;28;20021;-36
2022/09/17 06:31:47;;;;;;;0.38;0.38;;;;;;;17.92;84.85;92633.00;5090209;28;20078;-36
2022/09/17 06:34:12;;;;;;;3.00;1.17;;;;;;;17.91;84.75;92625.25;5081737;28;20028;-36
2022/09/17 06:36:38;;;;;;;0.22;0.22;;;;;;;17.91;84.90;92639.91;5087626;28;20017;-36
2022/09/17 06:39:03;;;;;;;0.10;0.10;;;;;;;17.89;85.08;92636.28;5085541;28;20040;-36
2022/09/17 06:41:29;;;;;;;3.53;1.55;;;;;;;17.81;85.67;92652.63;5086894;28;20024;-36
2022/09/17 06:43:54;;;;;;;1.63;1.13;;;;;;;17.68;85.45;92617.72;5090423;28;20419;-36
2022/09/17 06:46:20;;;;;;;0.88;0.75;;;;;;;17.94;84.80;92661.03;5084094;28;20051;-36
2022/09/17 06:48:45;;;;;;;3.40;0.65;;;;;;;17.86;84.85;92666.19;5077727;28;20615;-36
2022/09/17 06:51:11;;;;;;;0.85;0.85;;;;;;;17.87;85.19;92678.06;5079185;28;20027;-36
2022/09/17 06:53:38;;;;;;;0.30;0.30;;;;;;;17.72;85.99;92673.78;5079032;28;20052;-36
2022/09/17 06:56:05;;;;;;;0.35;0.35;;;;;;;17.54;87.36;92681.16;5077216;28;20028;-36
2022/09/17 06:58:31;;;;;;;0.70;0.70;;;;;;;17.61;87.44;92679.41;5079055;28;20106;-36
2022/09/17 07:01:00;;;;;;;0.28;0.28;;;;;;;17.48;87.44;92680.78;5077914;28;20100;-37
2022/09/17 07:03:27;;;;;;;0.60;0.60;;;;;;;17.63;86.13;92671.88;5077030;28;20052;-36
2022/09/17 07:05:52;;;;;;;8.18;1.15;;;;;;;17.65;85.33;92671.28;5079915;28;20024;-36
2022/09/17 07:08:18;;;;;;;4.20;1.17;;;;;;;17.54;84.45;92666.47;5080911;28;20081;-36
2022/09/17 07:10:44;;;;;;;0.20;0.20;;;;;;;17.54;84.90;92658.09;5079150;28;20025;-36
2022/09/17 07:13:09;;;;;;;0.57;0.57;;;;;;;17.61;84.55;92655.03;5078316;28;20020;-36
2022/09/17 07:15:35;;;;;;;0.30;0.30;;;;;;;17.67;84.38;92660.94;5082484;28;20395;-36
2022/09/17 07:18:07;;;;;;;0.63;0.63;;;;;;;17.86;85.08;92645.91;5082904;28;20020;-36
2022/09/17 07:20:32;;;;;;;0.10;0.10;;;;;;;17.87;85.22;92670.44;5076381;28;20048;-36
2022/09/17 07:22:58;;;;;;;0.32;0.32;;;;;;;17.97;85.51;92654.22;5083569;28;20028;-36
2022/09/17 07:25:25;;;;;;;0.47;0.47;;;;;;;18.02;85.30;92669.84;5079378;28;20050;-36
2022/09/17 07:27:51;;;;;;;0.95;0.88;;;;;;;18.12;84.53;92658.50;5077871;28;20024;-36
2022/09/17 07:30:17;;;;;;;0.15;0.15;;;;;;;18.28;83.50;92655.84;5080533;28;20031;-36
2022/09/17 07:32:42;;;;;;;0.10;0.10;;;;;;;18.51;82.63;92644.50;5081635;28;20025;-36
2022/09/17 07:35:08;;;;;;;1.23;0.70;;;;;;;18.75;81.94;92640.88;5080483;28;20027;-35
2022/09/17 07:37:33;;;;;;;0.30;0.30;;;;;;;19.31;81.53;92614.28;5077271;28;20068;-36
2022/09/17 07:39:59;;;;;;;1.50;0.52;;;;;;;20.65;74.31;92611.44;5081490;28;20419;-36
2022/09/17 07:42:26;;;;;;;0.17;0.17;;;;;;;21.91;68.31;92604.03;5084665;28;20066;-36
2022/09/17 07:44:51;;;;;;;1.40;0.75;;;;;;;22.90;65.16;92600.00;5061526;28;20107;-37
2022/09/17 07:47:17;;;;;;;0.40;0.40;;;;;;;24.18;57.93;92590.81;5082619;28;20111;-37
2022/09/17 07:49:42;;;;;;;0.55;0.55;;;;;;;25.47;54.07;92601.53;5084279;28;20081;-37
2022/09/17 07:52:08;;;;;;;0.65;0.55;;;;;;;26.36;50.10;92617.84;5079058;28;20039;-37
2022/09/17 07:54:35;;;;;;;1.38;1.27;;;;;;;27.30;46.30;92613.44;5077820;28;20032;-37
2022/09/17 07:57:01;;;;;;;0.20;0.20;;;;;;;28.01;43.66;92604.09;5085793;28;20199;-37
2022/09/17 07:59:26;;;;;;;0.20;0.20;;;;;;;28.97;42.29;92596.25;5082318;28;20027;-37
2022/09/17 08:01:52;;;;;;;0.65;0.65;;;;;;;29.73;40.65;92584.28;5079355;28;20518;-38
2022/09/17 08:04:17;;;;;;;0.00;0.00;;;;;;;30.59;38.49;92604.22;5089256;28;20064;-37
2022/09/17 08:06:47;;;;;;;0.10;0.10;;;;;;;31.06;35.07;92605.19;5085736;28;20077;-37
2022/09/17 08:09:14;;;;;;;0.00;0.00;;;;;;;31.53;34.70;92606.13;5083948;28;20081;-38
2022/09/17 08:11:40;;;;;;;0.52;0.52;;;;;;;31.58;33.35;92593.31;5088971;28;20055;-37
2022/09/17 08:14:08;;;;;;;0.10;0.10;;;;;;;32.53;32.92;92599.81;5074483;28;20020;-38
2022/09/17 08:16:33;;;;;;;1.07;0.53;;;;;;;32.76;30.33;92573.34;5057721;28;20027;-37
2022/09/17 08:18:59;;;;;;;0.00;0.00;;;;;;;33.72;30.17;92567.94;5089642;28;20012;-38
2022/09/17 08:21:24;;;;;;;0.40;0.40;;;;;;;32.72;29.25;92564.78;5075920;28;20032;-37
2022/09/17 08:23:50;;;;;;;0.00;0.00;;;;;;;31.50;30.13;92559.75;5086425;28;20035;-37
2022/09/17 08:26:17;;;;;;;0.00;0.00;;;;;;;30.34;32.87;92571.31;5090832;28;20059;-37
2022/09/17 08:28:44;;;;;;;0.93;0.93;;;;;;;29.61;35.90;92550.03;5085346;28;20024;-37
2022/09/17 08:31:10;;;;;;;0.10;0.10;;;;;;;29.91;35.68;92542.50;5082214;28;20631;-37
2022/09/17 08:33:38;;;;;;;0.00;0.00;;;;;;;30.60;33.95;92537.97;5090067;28;20020;-37
2022/09/17 08:36:05;;;;;;;0.10;0.10;;;;;;;30.46;33.37;92528.66;5084769;28;20104;-37
2022/09/17 08:38:32;;;;;;;0.10;0.10;;;;;;;30.18;34.36;92511.38;5082943;28;20063;-37
2022/09/17 08:41:13;;;;;;;0.38;0.20;;;;;;;30.17;34.53;92518.50;5076466;28;20519;-37
2022/09/17 08:43:38;;;;;;;0.10;0.10;;;;;;;31.04;32.60;92520.38;5085515;28;20031;-37
2022/09/17 08:46:04;;;;;;;0.00;0.00;;;;;;;31.94;29.12;92511.28;5081329;28;20416;-37
2022/09/17 08:48:41;;;;;;;0.00;0.00;;;;;;;32.05;29.25;92512.00;5080341;28;20031;-37
2022/09/17 08:51:42;;;;;;;0.00;0.00;;;;;;;33.00;28.29;92517.50;5080996;28;20050;-37
2022/09/17 08:54:23;;;;;;;0.10;0.10;;;;;;;33.56;27.39;92517.22;5083314;28;20028;-37
2022/09/17 08:57:16;;;;;;;0.13;0.13;;;;;;;33.93;26.15;92514.81;5078305;28;20032;-37
2022/09/17 09:00:20;;;;;;;0.20;0.10;;;;;;;33.97;26.33;92514.78;5082590;28;20029;-35
2022/09/17 09:03:20;;;;;;;0.10;0.10;;;;;;;33.65;27.16;92512.88;5078704;28;20111;-35
2022/09/17 09:05:52;;;;;;;0.25;0.20;;;;;;;32.77;28.93;92503.28;5048306;28;20025;-34
2022/09/17 09:08:17;;;;;;;0.00;0.00;;;;;;;31.84;29.53;92499.81;5090029;28;20028;-35
2022/09/17 09:10:54;;;;;;;0.05;0.05;;;;;;;31.18;30.75;92488.34;5083629;28;20043;-35
2022/09/17 09:13:24;;;;;;;0.10;0.10;;;;;;;30.84;31.32;92502.47;5062229;28;20025;-37
2022/09/17 09:16:00;;;;;;;0.00;0.00;;;;;;;30.38;31.00;92502.97;5079879;28;20126;-37
2022/09/17 09:18:29;;;;;;;0.10;0.10;;;;;;;29.45;32.69;92510.78;5079354;28;20033;-37
2022/09/17 09:21:06;;;;;;;2.17;0.32;;;;;;;28.05;36.74;92521.84;5082804;28;20104;-37
2022/09/17 09:23:52;;;;;;;0.03;0.03;;;;;;;27.49;38.60;92530.19;5077161;28;20032;-37
2022/09/17 09:26:31;;;;;;;0.20;0.20;;;;;;;26.81;39.29;92529.63;5077279;28;20071;-37
2022/09/17 09:29:11;;;;;;;0.00;0.00;;;;;;;26.10;40.59;92529.53;5077176;28;20098;-36
2022/09/17 09:31:59;;;;;;;0.00;0.00;;;;;;;25.62;42.91;92531.25;5060433;28;20032;-37
2022/09/17 09:34:26;;;;;;;0.20;0.20;;;;;;;25.33;43.92;92529.81;5065927;28;20032;-37
2022/09/17 09:36:58;;;;;;;1.75;1.38;;;;;;;25.19;45.10;92544.28;5080643;28;20043;-37
2022/09/17 09:39:28;;;;;;;0.98;0.75;;;;;;;25.01;46.25;92543.84;5058207;28;20021;-37
2022/09/17 09:42:18;;;;;;;0.00;0.00;;;;;;;24.73;47.33;92554.34;5063116;28;20017;-37
2022/09/17 09:44:44;;;;;;;0.52;0.52;;;;;;;24.54;49.78;92574.94;5078728;28;20020;-37
2022/09/17 09:47:44;;;;;;;1.27;1.15;;;;;;;24.20;50.76;92576.78;5074049;28;20476;-37
2022/09/17 09:50:20;;;;;;;2.05;1.95;;;;;;;23.55;53.83;92557.84;5067019;28;20432;-37
2022/09/17 09:53:21;;;;;;;2.63;1.50;;;;;;;23.73;55.76;92611.25;5078792;28;20461;-36
2022/09/17 09:56:03;;;;;;;0.95;0.30;;;;;;;23.44;56.36;92620.16;5072272;28;20032;-37
2022/09/17 09:58:31;;;;;;;0.40;0.40;;;;;;;23.36;57.18;92637.50;5077899;28;20086;-37
2022/09/17 10:00:57;;;;;;;1.20;1.10;;;;;;;23.03;59.15;92657.44;5076674;28;20032;-37
2022/09/17 10:03:27;;;;;;;4.00;0.57;;;;;;;22.84;59.67;92672.25;5084358;28;20034;-37
2022/09/17 10:05:56;;;;;;;0.30;0.28;;;;;;;22.74;60.95;92677.50;5096227;28;20048;-36
2022/09/17 10:08:21;;;;;;;0.17;0.17;;;;;;;22.72;62.15;92680.94;5081576;28;20449;-37
2022/09/17 10:10:54;;;;;;;0.93;0.88;;;;;;;22.45;63.68;92670.81;5093101;28;20024;-37
2022/09/17 10:13:20;;;;;;;5.05;1.08;;;;;;;22.46;64.81;92683.47;5091132;28;20020;-37
2022/09/17 10:15:45;;;;;;;1.45;1.10;;;;;;;22.33;64.77;92687.19;5090364;28;20047;-36
2022/09/17 10:18:18;;;;;;;0.08;0.08;;;;;;;22.26;64.63;92693.94;5098851;28;20028;-37
2022/09/17 10:20:58;;;;;;;0.10;0.10;;;;;;;22.16;65.95;92707.63;5092776;28;20453;-37
2022/09/17 10:23:30;;;;;;;1.92;0.90;;;;;;;21.98;66.19;92709.72;5080161;28;20649;-37
2022/09/17 10:25:56;;;;;;;0.68;0.68;;;;;;;21.82;66.25;92706.22;5074853;28;20102;-37
2022/09/17 10:28:40;;;;;;;0.65;0.50;;;;;;;21.75;67.66;92701.72;5060857;28;20123;-37
2022/09/17 10:31:09;;;;;;;0.17;0.17;;;;;;;21.64;68.56;92688.63;5088345;28;20575;-37
2022/09/17 10:33:38;;;;;;;0.10;0.10;;;;;;;21.25;71.64;92666.63;5070031;28;20407;-37
2022/09/17 10:36:07;;;;;;;0.68;0.68;;;;;;;21.18;71.58;92661.41;5089559;28;20054;-37
2022/09/17 10:38:36;;;;;;;;;;;;;;;21.03;73.05;92651.66;5086248;28;20047;-37
2022/09/17 10:41:23;;;;;;;0.20;0.20;;;;;;;20.98;73.26;92638.78;5090123;28;20367;-37
2022/09/17 10:43:49;;;;;;;0.95;0.95;;;;;;;20.87;72.89;92603.25;5089082;28;20507;-36
2022/09/17 10:46:21;;;;;;;0.40;0.40;;;;;;;20.62;74.65;92595.16;5080118;28;20524;-37
2022/09/17 10:48:58;;;;;;;10.30;1.35;;;;;;;20.36;75.53;92595.44;5073113;28;20031;-37
2022/09/17 10:51:24;;;;;;;0.32;0.32;;;;;;;20.28;75.18;92605.56;5086790;28;20024;-36
2022/09/17 10:54:15;;;;;;;0.13;0.13;;;;;;;20.28;73.65;92616.78;5066712;28;20031;-36
2022/09/17 10:56:51;;;;;;;0.47;0.47;;;;;;;20.04;75.79;92621.97;5079531;28;20067;-37
2022/09/17 10:59:46;;;;;;;4.68;0.52;;;;;;;19.86;76.48;92623.94;5083731;28;20020;-36
2022/09/17 11:02:24;;;;;;;0.10;0.10;;;;;;;19.83;76.81;92627.28;5083003;28;20044;-37
2022/09/17 11:05:01;;;;;;;1.85;0.65;;;;;;;19.71;79.90;92612.72;5073590;28;20415;-36
2022/09/17 11:07:46;;;;;;;0.10;0.10;;;;;;;19.76;78.32;92580.72;5069933;28;20412;-36
2022/09/17 11:10:15;;;;;;;0.82;0.82;;;;;;;19.70;79.08;92550.38;5076094;28;20020;-37
2022/09/17 11:12:59;;;;;;;0.13;0.13;;;;;;;19.63;77.46;92540.25;5070134;28;20117;-36
2022/09/17 11:15:47;;;;;;;0.22;0.20;;;;;;;19.44;77.73;92535.16;5075487;28;20407;-36
2022/09/17 11:18:22;;;;;;;0.25;0.25;;;;;;;19.37;77.29;92536.94;5068256;28;20028;-36
2022/09/17 11:21:20;;;;;;;0.35;0.35;;;;;;;19.43;78.40;92516.91;5090806;28;20058;-37
2022/09/17 11:23:56;;;;;;;0.10;0.10;;;;;;;19.57;75.15;92526.69;5071802;28;20016;-36
2022/09/17 11:26:39;;;;;;;0.20;0.20;;;;;;;19.65;71.00;92520.72;5071434;28;20043;-36
2022/09/17 11:29:42;;;;;;;0.52;0.52;;;;;;;19.73;76.00;92520.38;5070716;28;20035;-36
2022/09/17 11:32:25;;;;;;;0.10;0.10;;;;;;;19.86;73.77;92530.78;5080681;28;20091;-37
2022/09/17 11:35:10;;;;;;;0.30;0.30;;;;;;;19.98;75.57;92514.50;5087766;28;20035;-36
2022/09/17 11:37:48;;;;;;;0.10;0.10;;;;;;;19.98;75.93;92515.25;5096322;28;20052;-37
2022/09/17 11:40:28;;;;;;;0.10;0.10;;;;;;;20.08;74.82;92509.34;5085886;28;20024;-37
2022/09/17 11:43:24;;;;;;;0.10;0.10;;;;;;;20.26;76.26;92524.91;5084139;28;20038;-37
2022/09/17 11:46:17;;;;;;;0.80;0.43;;;;;;;20.29;78.92;92512.41;5081586;28;20054;-37
2022/09/17 11:48:48;;;;;;;0.10;0.10;;;;;;;20.55;78.96;92521.25;5080939;28;20036;-36
2022/09/17 11:51:33;;;;;;;0.10;0.10;;;;;;;20.78;77.26;92536.91;5057524;28;20036;-37
2022/09/17 11:54:22;;;;;;;0.30;0.30;;;;;;;20.89;71.48;92547.94;5059972;28;20047;-36